sensor_id;sensor_type;location;lat;lon;timestamp;P1;durP1;ratioP1;P2;durP2;ratioP2
6207;SDS011;3137;51.550;7.060;2022-12-26T00:00:24;12.23;;;9.70;;
6207;SDS011;3137;51.550;7.060;2022-12-26T00:02:51;11.13;;;9.77;;
6207;SDS011;3137;51.550;7.060;2022-12-26T00:05:17;10.20;;;9.50;;
6207;SDS011;3137;51.550;7.060;2022-12-26T00:07:43;10.03;;;7.60;;
6207;SDS011;3137;51.550;7.060;2022-12-26T00:10:10;9.47;;;8.50;;
6207;SDS011;3137;51.550;7.060;2022-12-26T00:12:37;8.27;;;7.57;;
6207;SDS011;3137;51.550;7.060;2022-12-26T00:15:03;7.47;;;7.13;;
6207;SDS011;3137;51.550;7.060;2022-12-26T00:17:30;6.43;;;6.23;;
6207;SDS011;3137;51.550;7.060;2022-12-26T00:19:56;7.83;;;7.20;;
6207;SDS011;3137;51.550;7.060;2022-12-26T00:22:23;6.67;;;6.47;;
6207;SDS011;3137;51.550;7.060;2022-12-26T00:24:49;6.27;;;5.97;;
6207;SDS011;3137;51.550;7.060;2022-12-26T00:27:16;5.87;;;5.47;;
6207;SDS011;3137;51.550;7.060;2022-12-26T00:29:42;7.30;;;7.00;;
6207;SDS011;3137;51.550;7.060;2022-12-26T00:32:08;6.87;;;6.43;;
6207;SDS011;3137;51.550;7.060;2022-12-26T00:34:35;6.40;;;6.10;;
6207;SDS011;3137;51.550;7.060;2022-12-26T00:37:02;6.80;;;5.80;;
6207;SDS011;3137;51.550;7.060;2022-12-26T00:39:28;5.83;;;5.57;;
6207;SDS011;3137;51.550;7.060;2022-12-26T00:41:54;4.83;;;4.73;;
6207;SDS011;3137;51.550;7.060;2022-12-26T00:44:21;4.80;;;4.60;;
6207;SDS011;3137;51.550;7.060;2022-12-26T00:46:47;5.93;;;5.47;;
6207;SDS011;3137;51.550;7.060;2022-12-26T00:49:14;5.60;;;5.30;;
6207;SDS011;3137;51.550;7.060;2022-12-26T00:51:40;5.00;;;4.90;;
6207;SDS011;3137;51.550;7.060;2022-12-26T00:54:06;5.97;;;5.60;;
6207;SDS011;3137;51.550;7.060;2022-12-26T00:56:33;8.00;;;6.43;;
6207;SDS011;3137;51.550;7.060;2022-12-26T00:58:59;6.33;;;5.93;;
6207;SDS011;3137;51.550;7.060;2022-12-26T01:01:26;6.17;;;5.87;;
6207;SDS011;3137;51.550;7.060;2022-12-26T01:03:56;6.97;;;6.50;;
6207;SDS011;3137;51.550;7.060;2022-12-26T01:06:23;6.73;;;6.37;;
6207;SDS011;3137;51.550;7.060;2022-12-26T01:08:49;6.93;;;6.73;;
6207;SDS011;3137;51.550;7.060;2022-12-26T01:11:16;7.60;;;7.20;;
6207;SDS011;3137;51.550;7.060;2022-12-26T01:14:13;7.60;;;7.30;;
6207;SDS011;3137;51.550;7.060;2022-12-26T01:16:42;6.67;;;6.37;;
6207;SDS011;3137;51.550;7.060;2022-12-26T01:19:11;7.10;;;6.73;;
6207;SDS011;3137;51.550;7.060;2022-12-26T01:21:38;6.83;;;6.50;;
6207;SDS011;3137;51.550;7.060;2022-12-26T01:24:06;7.33;;;7.07;;
6207;SDS011;3137;51.550;7.060;2022-12-26T01:26:33;6.93;;;6.63;;
6207;SDS011;3137;51.550;7.060;2022-12-26T01:28:59;6.40;;;6.00;;
6207;SDS011;3137;51.550;7.060;2022-12-26T01:31:25;7.77;;;7.17;;
6207;SDS011;3137;51.550;7.060;2022-12-26T01:33:52;6.43;;;6.23;;
6207;SDS011;3137;51.550;7.060;2022-12-26T01:36:18;6.20;;;5.80;;
6207;SDS011;3137;51.550;7.060;2022-12-26T01:38:45;6.67;;;6.40;;
6207;SDS011;3137;51.550;7.060;2022-12-26T01:41:11;7.07;;;6.77;;
6207;SDS011;3137;51.550;7.060;2022-12-26T01:46:18;7.67;;;7.17;;
6207;SDS011;3137;51.550;7.060;2022-12-26T01:48:58;6.73;;;6.53;;
6207;SDS011;3137;51.550;7.060;2022-12-26T01:51:32;7.03;;;6.73;;
6207;SDS011;3137;51.550;7.060;2022-12-26T01:54:01;7.97;;;7.67;;
6207;SDS011;3137;51.550;7.060;2022-12-26T01:56:52;6.77;;;6.57;;
6207;SDS011;3137;51.550;7.060;2022-12-26T01:59:23;6.90;;;6.37;;
6207;SDS011;3137;51.550;7.060;2022-12-26T02:01:53;4.73;;;4.73;;
6207;SDS011;3137;51.550;7.060;2022-12-26T02:04:27;4.83;;;4.73;;
6207;SDS011;3137;51.550;7.060;2022-12-26T02:07:17;4.00;;;4.00;;
6207;SDS011;3137;51.550;7.060;2022-12-26T02:09:43;3.80;;;3.77;;
6207;SDS011;3137;51.550;7.060;2022-12-26T02:12:13;3.27;;;3.27;;
6207;SDS011;3137;51.550;7.060;2022-12-26T02:15:04;3.10;;;2.97;;
6207;SDS011;3137;51.550;7.060;2022-12-26T02:17:33;2.80;;;2.77;;
6207;SDS011;3137;51.550;7.060;2022-12-26T02:20:08;3.07;;;3.07;;
6207;SDS011;3137;51.550;7.060;2022-12-26T02:31:30;4.07;;;3.97;;
6207;SDS011;3137;51.550;7.060;2022-12-26T02:42:55;4.30;;;4.20;;
6207;SDS011;3137;51.550;7.060;2022-12-26T02:48:22;4.40;;;4.33;;
6207;SDS011;3137;51.550;7.060;2022-12-26T02:51:01;4.03;;;3.93;;
6207;SDS011;3137;51.550;7.060;2022-12-26T02:57:11;3.10;;;3.00;;
6207;SDS011;3137;51.550;7.060;2022-12-26T03:00:04;3.50;;;3.40;;
6207;SDS011;3137;51.550;7.060;2022-12-26T03:02:54;3.60;;;3.33;;
6207;SDS011;3137;51.550;7.060;2022-12-26T03:05:46;3.80;;;3.80;;
6207;SDS011;3137;51.550;7.060;2022-12-26T03:08:41;3.87;;;3.77;;
6207;SDS011;3137;51.550;7.060;2022-12-26T03:11:33;3.57;;;3.37;;
6207;SDS011;3137;51.550;7.060;2022-12-26T03:14:28;4.43;;;4.33;;
6207;SDS011;3137;51.550;7.060;2022-12-26T03:16:59;4.10;;;4.10;;
6207;SDS011;3137;51.550;7.060;2022-12-26T03:19:52;5.03;;;4.93;;
6207;SDS011;3137;51.550;7.060;2022-12-26T03:22:25;5.33;;;5.23;;
6207;SDS011;3137;51.550;7.060;2022-12-26T03:25:22;5.93;;;5.73;;
6207;SDS011;3137;51.550;7.060;2022-12-26T03:28:26;5.63;;;5.50;;
6207;SDS011;3137;51.550;7.060;2022-12-26T03:30:53;5.40;;;5.20;;
6207;SDS011;3137;51.550;7.060;2022-12-26T03:58:21;7.70;;;7.00;;
6207;SDS011;3137;51.550;7.060;2022-12-26T04:01:19;6.70;;;6.20;;
6207;SDS011;3137;51.550;7.060;2022-12-26T04:04:09;6.90;;;6.43;;
6207;SDS011;3137;51.550;7.060;2022-12-26T04:06:58;6.60;;;6.43;;
6207;SDS011;3137;51.550;7.060;2022-12-26T04:09:58;8.20;;;7.80;;
6207;SDS011;3137;51.550;7.060;2022-12-26T04:12:53;8.37;;;8.00;;
6207;SDS011;3137;51.550;7.060;2022-12-26T04:18:34;8.70;;;8.30;;
6207;SDS011;3137;51.550;7.060;2022-12-26T04:21:29;8.40;;;7.87;;
6207;SDS011;3137;51.550;7.060;2022-12-26T04:24:49;7.57;;;7.37;;
6207;SDS011;3137;51.550;7.060;2022-12-26T04:27:41;9.10;;;8.57;;
6207;SDS011;3137;51.550;7.060;2022-12-26T04:30:26;8.07;;;7.63;;
6207;SDS011;3137;51.550;7.060;2022-12-26T04:33:16;8.53;;;8.07;;
6207;SDS011;3137;51.550;7.060;2022-12-26T04:36:13;11.20;;;8.23;;
6207;SDS011;3137;51.550;7.060;2022-12-26T04:39:03;8.00;;;7.70;;
6207;SDS011;3137;51.550;7.060;2022-12-26T04:41:50;6.97;;;6.67;;
6207;SDS011;3137;51.550;7.060;2022-12-26T04:44:38;6.70;;;6.50;;
6207;SDS011;3137;51.550;7.060;2022-12-26T04:47:05;6.50;;;6.20;;
6207;SDS011;3137;51.550;7.060;2022-12-26T04:49:40;6.30;;;6.20;;
6207;SDS011;3137;51.550;7.060;2022-12-26T04:52:28;6.97;;;6.60;;
6207;SDS011;3137;51.550;7.060;2022-12-26T04:55:15;7.37;;;7.07;;
6207;SDS011;3137;51.550;7.060;2022-12-26T04:57:43;7.47;;;7.17;;
6207;SDS011;3137;51.550;7.060;2022-12-26T05:00:09;7.70;;;7.40;;
6207;SDS011;3137;51.550;7.060;2022-12-26T05:02:36;7.67;;;7.37;;
6207;SDS011;3137;51.550;7.060;2022-12-26T05:05:22;7.43;;;7.23;;
6207;SDS011;3137;51.550;7.060;2022-12-26T05:08:09;8.33;;;8.03;;
6207;SDS011;3137;51.550;7.060;2022-12-26T05:11:06;8.37;;;8.03;;
6207;SDS011;3137;51.550;7.060;2022-12-26T05:13:33;8.23;;;7.93;;
6207;SDS011;3137;51.550;7.060;2022-12-26T05:15:59;8.57;;;8.10;;
6207;SDS011;3137;51.550;7.060;2022-12-26T05:18:44;7.77;;;7.37;;
6207;SDS011;3137;51.550;7.060;2022-12-26T05:21:29;7.33;;;7.13;;
6207;SDS011;3137;51.550;7.060;2022-12-26T05:24:15;7.73;;;7.37;;
6207;SDS011;3137;51.550;7.060;2022-12-26T05:27:00;8.30;;;7.90;;
6207;SDS011;3137;51.550;7.060;2022-12-26T05:29:46;6.70;;;6.50;;
6207;SDS011;3137;51.550;7.060;2022-12-26T05:32:12;7.73;;;7.33;;
6207;SDS011;3137;51.550;7.060;2022-12-26T05:34:39;7.43;;;7.13;;
6207;SDS011;3137;51.550;7.060;2022-12-26T05:37:05;7.93;;;7.57;;
6207;SDS011;3137;51.550;7.060;2022-12-26T05:39:32;8.27;;;8.03;;
6207;SDS011;3137;51.550;7.060;2022-12-26T05:41:58;8.53;;;8.03;;
6207;SDS011;3137;51.550;7.060;2022-12-26T05:44:24;7.97;;;7.57;;
6207;SDS011;3137;51.550;7.060;2022-12-26T05:46:51;7.73;;;7.33;;
6207;SDS011;3137;51.550;7.060;2022-12-26T05:49:17;8.50;;;7.80;;
6207;SDS011;3137;51.550;7.060;2022-12-26T05:51:44;7.43;;;7.13;;
6207;SDS011;3137;51.550;7.060;2022-12-26T05:54:11;8.43;;;7.83;;
6207;SDS011;3137;51.550;7.060;2022-12-26T05:56:37;7.70;;;7.10;;
6207;SDS011;3137;51.550;7.060;2022-12-26T05:59:07;7.33;;;6.93;;
6207;SDS011;3137;51.550;7.060;2022-12-26T06:01:34;10.13;;;7.97;;
6207;SDS011;3137;51.550;7.060;2022-12-26T06:04:01;7.73;;;7.17;;
6207;SDS011;3137;51.550;7.060;2022-12-26T06:06:28;7.50;;;7.20;;
6207;SDS011;3137;51.550;7.060;2022-12-26T06:08:55;7.00;;;6.43;;
6207;SDS011;3137;51.550;7.060;2022-12-26T06:11:22;8.23;;;7.73;;
6207;SDS011;3137;51.550;7.060;2022-12-26T06:13:51;6.93;;;6.53;;
6207;SDS011;3137;51.550;7.060;2022-12-26T06:16:18;7.50;;;6.97;;
6207;SDS011;3137;51.550;7.060;2022-12-26T06:18:45;7.33;;;7.10;;
6207;SDS011;3137;51.550;7.060;2022-12-26T06:21:14;7.87;;;7.43;;
6207;SDS011;3137;51.550;7.060;2022-12-26T06:23:42;7.27;;;6.90;;
6207;SDS011;3137;51.550;7.060;2022-12-26T06:26:08;7.00;;;6.70;;
6207;SDS011;3137;51.550;7.060;2022-12-26T06:28:37;7.20;;;6.67;;
6207;SDS011;3137;51.550;7.060;2022-12-26T06:31:12;7.77;;;7.37;;
6207;SDS011;3137;51.550;7.060;2022-12-26T06:33:50;8.30;;;7.80;;
6207;SDS011;3137;51.550;7.060;2022-12-26T06:36:21;7.83;;;7.27;;
6207;SDS011;3137;51.550;7.060;2022-12-26T06:38:49;7.67;;;7.27;;
6207;SDS011;3137;51.550;7.060;2022-12-26T06:41:16;6.90;;;6.63;;
6207;SDS011;3137;51.550;7.060;2022-12-26T06:43:44;6.57;;;5.97;;
6207;SDS011;3137;51.550;7.060;2022-12-26T06:46:12;6.67;;;6.27;;
6207;SDS011;3137;51.550;7.060;2022-12-26T06:48:41;6.30;;;5.90;;
6207;SDS011;3137;51.550;7.060;2022-12-26T06:51:10;7.67;;;7.03;;
6207;SDS011;3137;51.550;7.060;2022-12-26T06:53:44;7.97;;;7.20;;
6207;SDS011;3137;51.550;7.060;2022-12-26T06:56:12;7.60;;;7.07;;
6207;SDS011;3137;51.550;7.060;2022-12-26T06:58:43;7.90;;;7.33;;
6207;SDS011;3137;51.550;7.060;2022-12-26T07:01:13;6.63;;;6.33;;
6207;SDS011;3137;51.550;7.060;2022-12-26T07:03:42;9.17;;;8.27;;
6207;SDS011;3137;51.550;7.060;2022-12-26T07:08:55;8.53;;;7.83;;
6207;SDS011;3137;51.550;7.060;2022-12-26T07:11:24;8.73;;;8.30;;
6207;SDS011;3137;51.550;7.060;2022-12-26T07:13:52;9.03;;;8.43;;
6207;SDS011;3137;51.550;7.060;2022-12-26T07:16:19;9.33;;;7.83;;
6207;SDS011;3137;51.550;7.060;2022-12-26T07:18:46;9.13;;;8.40;;
6207;SDS011;3137;51.550;7.060;2022-12-26T07:21:13;8.33;;;7.80;;
6207;SDS011;3137;51.550;7.060;2022-12-26T07:23:41;8.20;;;7.80;;
6207;SDS011;3137;51.550;7.060;2022-12-26T07:26:07;7.73;;;7.17;;
6207;SDS011;3137;51.550;7.060;2022-12-26T07:28:34;6.97;;;6.57;;
6207;SDS011;3137;51.550;7.060;2022-12-26T07:31:01;7.33;;;6.67;;
6207;SDS011;3137;51.550;7.060;2022-12-26T07:33:28;6.27;;;6.07;;
6207;SDS011;3137;51.550;7.060;2022-12-26T07:36:02;6.70;;;6.10;;
6207;SDS011;3137;51.550;7.060;2022-12-26T07:38:31;6.50;;;6.20;;
6207;SDS011;3137;51.550;7.060;2022-12-26T07:40:58;6.33;;;5.83;;
6207;SDS011;3137;51.550;7.060;2022-12-26T07:43:45;6.23;;;5.50;;
6207;SDS011;3137;51.550;7.060;2022-12-26T07:46:11;6.90;;;6.53;;
6207;SDS011;3137;51.550;7.060;2022-12-26T07:48:38;7.20;;;6.67;;
6207;SDS011;3137;51.550;7.060;2022-12-26T07:51:04;6.70;;;6.40;;
6207;SDS011;3137;51.550;7.060;2022-12-26T07:53:31;6.87;;;6.43;;
6207;SDS011;3137;51.550;7.060;2022-12-26T07:55:58;7.10;;;6.60;;
6207;SDS011;3137;51.550;7.060;2022-12-26T07:58:24;7.03;;;5.60;;
6207;SDS011;3137;51.550;7.060;2022-12-26T08:00:51;7.23;;;6.73;;
6207;SDS011;3137;51.550;7.060;2022-12-26T08:03:18;7.63;;;6.90;;
6207;SDS011;3137;51.550;7.060;2022-12-26T08:05:45;7.47;;;6.27;;
6207;SDS011;3137;51.550;7.060;2022-12-26T08:08:14;6.50;;;6.10;;
6207;SDS011;3137;51.550;7.060;2022-12-26T08:10:41;6.07;;;5.83;;
6207;SDS011;3137;51.550;7.060;2022-12-26T08:13:07;4.93;;;4.83;;
6207;SDS011;3137;51.550;7.060;2022-12-26T08:15:37;5.63;;;5.30;;
6207;SDS011;3137;51.550;7.060;2022-12-26T08:18:04;5.90;;;5.80;;
6207;SDS011;3137;51.550;7.060;2022-12-26T08:20:31;6.40;;;5.90;;
6207;SDS011;3137;51.550;7.060;2022-12-26T08:22:58;5.53;;;5.33;;
6207;SDS011;3137;51.550;7.060;2022-12-26T08:25:24;5.27;;;5.17;;
6207;SDS011;3137;51.550;7.060;2022-12-26T08:27:51;4.33;;;4.33;;
6207;SDS011;3137;51.550;7.060;2022-12-26T08:30:17;4.43;;;4.23;;
6207;SDS011;3137;51.550;7.060;2022-12-26T08:32:44;5.70;;;3.53;;
6207;SDS011;3137;51.550;7.060;2022-12-26T08:35:11;3.63;;;3.53;;
6207;SDS011;3137;51.550;7.060;2022-12-26T08:37:38;6.60;;;4.07;;
6207;SDS011;3137;51.550;7.060;2022-12-26T08:40:05;4.87;;;4.63;;
6207;SDS011;3137;51.550;7.060;2022-12-26T08:42:31;4.00;;;3.90;;
6207;SDS011;3137;51.550;7.060;2022-12-26T08:45:05;2.97;;;2.97;;
6207;SDS011;3137;51.550;7.060;2022-12-26T08:47:32;3.80;;;3.60;;
6207;SDS011;3137;51.550;7.060;2022-12-26T08:49:58;4.63;;;4.23;;
6207;SDS011;3137;51.550;7.060;2022-12-26T08:52:24;3.80;;;3.73;;
6207;SDS011;3137;51.550;7.060;2022-12-26T08:54:51;4.50;;;4.17;;
6207;SDS011;3137;51.550;7.060;2022-12-26T08:57:17;3.93;;;3.83;;
6207;SDS011;3137;51.550;7.060;2022-12-26T08:59:44;4.20;;;4.00;;
6207;SDS011;3137;51.550;7.060;2022-12-26T09:02:10;3.80;;;3.70;;
6207;SDS011;3137;51.550;7.060;2022-12-26T09:04:37;3.27;;;3.27;;
6207;SDS011;3137;51.550;7.060;2022-12-26T09:07:03;4.73;;;4.50;;
6207;SDS011;3137;51.550;7.060;2022-12-26T09:09:33;4.57;;;4.37;;
6207;SDS011;3137;51.550;7.060;2022-12-26T09:12:00;5.17;;;4.67;;
6207;SDS011;3137;51.550;7.060;2022-12-26T09:14:26;4.37;;;4.27;;
6207;SDS011;3137;51.550;7.060;2022-12-26T09:16:53;6.43;;;4.20;;
6207;SDS011;3137;51.550;7.060;2022-12-26T09:19:20;3.87;;;3.87;;
6207;SDS011;3137;51.550;7.060;2022-12-26T09:21:47;4.97;;;4.87;;
6207;SDS011;3137;51.550;7.060;2022-12-26T09:24:35;4.43;;;4.33;;
6207;SDS011;3137;51.550;7.060;2022-12-26T09:27:01;6.77;;;4.17;;
6207;SDS011;3137;51.550;7.060;2022-12-26T09:29:28;3.40;;;3.30;;
6207;SDS011;3137;51.550;7.060;2022-12-26T09:31:54;3.97;;;3.73;;
6207;SDS011;3137;51.550;7.060;2022-12-26T09:34:21;3.30;;;3.20;;
6207;SDS011;3137;51.550;7.060;2022-12-26T09:36:47;3.53;;;3.53;;
6207;SDS011;3137;51.550;7.060;2022-12-26T09:39:13;3.00;;;2.90;;
6207;SDS011;3137;51.550;7.060;2022-12-26T09:41:49;3.80;;;3.33;;
6207;SDS011;3137;51.550;7.060;2022-12-26T09:44:37;3.20;;;3.00;;
6207;SDS011;3137;51.550;7.060;2022-12-26T09:49:56;2.53;;;2.43;;
6207;SDS011;3137;51.550;7.060;2022-12-26T09:52:36;2.70;;;2.53;;
6207;SDS011;3137;51.550;7.060;2022-12-26T09:55:05;2.93;;;2.83;;
6207;SDS011;3137;51.550;7.060;2022-12-26T09:57:47;9.30;;;2.70;;
6207;SDS011;3137;51.550;7.060;2022-12-26T10:00:17;3.67;;;3.37;;
6207;SDS011;3137;51.550;7.060;2022-12-26T10:02:48;2.77;;;2.40;;
6207;SDS011;3137;51.550;7.060;2022-12-26T10:05:18;2.90;;;2.90;;
6207;SDS011;3137;51.550;7.060;2022-12-26T10:07:49;9.13;;;3.43;;
6207;SDS011;3137;51.550;7.060;2022-12-26T10:19:01;2.60;;;2.60;;
6207;SDS011;3137;51.550;7.060;2022-12-26T10:24:11;7.13;;;2.30;;
6207;SDS011;3137;51.550;7.060;2022-12-26T10:26:48;2.47;;;2.37;;
6207;SDS011;3137;51.550;7.060;2022-12-26T10:29:29;3.67;;;2.77;;
6207;SDS011;3137;51.550;7.060;2022-12-26T10:32:06;3.03;;;2.93;;
6207;SDS011;3137;51.550;7.060;2022-12-26T10:34:43;2.30;;;2.20;;
6207;SDS011;3137;51.550;7.060;2022-12-26T10:37:27;3.23;;;2.90;;
6207;SDS011;3137;51.550;7.060;2022-12-26T10:39:59;2.50;;;2.30;;
6207;SDS011;3137;51.550;7.060;2022-12-26T10:42:38;4.37;;;3.03;;
6207;SDS011;3137;51.550;7.060;2022-12-26T10:48:08;4.43;;;2.93;;
6207;SDS011;3137;51.550;7.060;2022-12-26T10:50:39;1.63;;;1.63;;
6207;SDS011;3137;51.550;7.060;2022-12-26T10:53:11;3.00;;;2.23;;
6207;SDS011;3137;51.550;7.060;2022-12-26T10:55:39;2.47;;;2.37;;
6207;SDS011;3137;51.550;7.060;2022-12-26T10:58:20;2.37;;;2.37;;
6207;SDS011;3137;51.550;7.060;2022-12-26T11:00:52;2.83;;;2.33;;
6207;SDS011;3137;51.550;7.060;2022-12-26T11:03:19;2.13;;;2.03;;
6207;SDS011;3137;51.550;7.060;2022-12-26T11:05:47;2.97;;;2.77;;
6207;SDS011;3137;51.550;7.060;2022-12-26T11:08:38;3.37;;;2.40;;
6207;SDS011;3137;51.550;7.060;2022-12-26T11:11:13;2.30;;;2.20;;
6207;SDS011;3137;51.550;7.060;2022-12-26T11:13:54;2.50;;;2.27;;
6207;SDS011;3137;51.550;7.060;2022-12-26T11:16:32;9.10;;;2.13;;
6207;SDS011;3137;51.550;7.060;2022-12-26T11:19:02;2.10;;;2.00;;
6207;SDS011;3137;51.550;7.060;2022-12-26T11:21:29;2.67;;;2.63;;
6207;SDS011;3137;51.550;7.060;2022-12-26T11:24:16;2.30;;;2.30;;
6207;SDS011;3137;51.550;7.060;2022-12-26T11:26:46;2.27;;;2.17;;
6207;SDS011;3137;51.550;7.060;2022-12-26T11:29:17;2.53;;;2.23;;
6207;SDS011;3137;51.550;7.060;2022-12-26T11:34:25;2.03;;;1.87;;
6207;SDS011;3137;51.550;7.060;2022-12-26T11:36:57;2.77;;;2.67;;
6207;SDS011;3137;51.550;7.060;2022-12-26T11:39:27;2.70;;;2.70;;
6207;SDS011;3137;51.550;7.060;2022-12-26T11:41:58;3.07;;;2.97;;
6207;SDS011;3137;51.550;7.060;2022-12-26T11:44:29;2.57;;;1.90;;
6207;SDS011;3137;51.550;7.060;2022-12-26T11:54:56;2.10;;;2.10;;
6207;SDS011;3137;51.550;7.060;2022-12-26T11:57:30;2.10;;;2.10;;
6207;SDS011;3137;51.550;7.060;2022-12-26T12:00:13;2.33;;;2.10;;
6207;SDS011;3137;51.550;7.060;2022-12-26T12:02:44;2.80;;;1.97;;
6207;SDS011;3137;51.550;7.060;2022-12-26T12:05:12;1.93;;;1.73;;
6207;SDS011;3137;51.550;7.060;2022-12-26T12:10:47;2.23;;;2.07;;
6207;SDS011;3137;51.550;7.060;2022-12-26T12:13:23;2.23;;;2.23;;
6207;SDS011;3137;51.550;7.060;2022-12-26T12:18:56;3.80;;;2.30;;
6207;SDS011;3137;51.550;7.060;2022-12-26T12:21:33;7.93;;;2.20;;
6207;SDS011;3137;51.550;7.060;2022-12-26T12:32:52;2.73;;;2.53;;
6207;SDS011;3137;51.550;7.060;2022-12-26T12:49:57;3.93;;;3.27;;
6207;SDS011;3137;51.550;7.060;2022-12-26T13:00:43;3.07;;;2.83;;
6207;SDS011;3137;51.550;7.060;2022-12-26T13:08:49;4.03;;;3.83;;
6207;SDS011;3137;51.550;7.060;2022-12-26T13:14:04;7.63;;;3.30;;
6207;SDS011;3137;51.550;7.060;2022-12-26T13:16:42;4.43;;;4.13;;
6207;SDS011;3137;51.550;7.060;2022-12-26T13:19:19;4.83;;;4.63;;
6207;SDS011;3137;51.550;7.060;2022-12-26T13:21:50;4.13;;;3.70;;
6207;SDS011;3137;51.550;7.060;2022-12-26T13:29:39;5.20;;;5.00;;
6207;SDS011;3137;51.550;7.060;2022-12-26T13:34:48;5.10;;;4.90;;
6207;SDS011;3137;51.550;7.060;2022-12-26T13:40:20;5.47;;;5.17;;
6207;SDS011;3137;51.550;7.060;2022-12-26T13:45:57;9.10;;;4.20;;
6207;SDS011;3137;51.550;7.060;2022-12-26T13:50:59;5.53;;;4.43;;
6207;SDS011;3137;51.550;7.060;2022-12-26T13:53:29;5.03;;;4.70;;
6207;SDS011;3137;51.550;7.060;2022-12-26T13:56:03;4.50;;;4.30;;
6207;SDS011;3137;51.550;7.060;2022-12-26T13:58:59;5.20;;;4.27;;
6207;SDS011;3137;51.550;7.060;2022-12-26T14:04:39;10.60;;;4.33;;
6207;SDS011;3137;51.550;7.060;2022-12-26T14:16:51;7.40;;;5.03;;
6207;SDS011;3137;51.550;7.060;2022-12-26T14:22:27;6.53;;;3.67;;
6207;SDS011;3137;51.550;7.060;2022-12-26T14:31:05;2.97;;;2.77;;
6207;SDS011;3137;51.550;7.060;2022-12-26T14:45:11;8.27;;;3.03;;
6207;SDS011;3137;51.550;7.060;2022-12-26T14:47:57;2.73;;;2.50;;
6207;SDS011;3137;51.550;7.060;2022-12-26T15:34:36;6.00;;;3.73;;
6207;SDS011;3137;51.550;7.060;2022-12-26T15:40:33;9.77;;;3.70;;
6207;SDS011;3137;51.550;7.060;2022-12-26T15:48:31;4.77;;;3.90;;
6207;SDS011;3137;51.550;7.060;2022-12-26T15:56:43;6.43;;;3.63;;
6207;SDS011;3137;51.550;7.060;2022-12-26T16:04:52;4.70;;;4.17;;
6207;SDS011;3137;51.550;7.060;2022-12-26T16:07:34;4.33;;;3.83;;
6207;SDS011;3137;51.550;7.060;2022-12-26T16:10:14;6.47;;;3.63;;
6207;SDS011;3137;51.550;7.060;2022-12-26T16:15:46;7.97;;;3.60;;
6207;SDS011;3137;51.550;7.060;2022-12-26T16:18:25;6.23;;;3.80;;
6207;SDS011;3137;51.550;7.060;2022-12-26T16:20:53;12.70;;;4.40;;
6207;SDS011;3137;51.550;7.060;2022-12-26T16:23:41;4.17;;;3.63;;
6207;SDS011;3137;51.550;7.060;2022-12-26T16:26:22;8.97;;;4.20;;
6207;SDS011;3137;51.550;7.060;2022-12-26T16:28:52;9.30;;;4.57;;
6207;SDS011;3137;51.550;7.060;2022-12-26T16:31:23;5.37;;;4.20;;
6207;SDS011;3137;51.550;7.060;2022-12-26T16:33:52;7.93;;;3.90;;
6207;SDS011;3137;51.550;7.060;2022-12-26T16:36:21;8.40;;;4.07;;
6207;SDS011;3137;51.550;7.060;2022-12-26T16:38:49;5.50;;;4.10;;
6207;SDS011;3137;51.550;7.060;2022-12-26T16:43:47;10.90;;;4.70;;
6207;SDS011;3137;51.550;7.060;2022-12-26T16:46:14;4.90;;;4.30;;
6207;SDS011;3137;51.550;7.060;2022-12-26T16:48:44;7.67;;;4.23;;
6207;SDS011;3137;51.550;7.060;2022-12-26T16:51:37;5.37;;;4.90;;
6207;SDS011;3137;51.550;7.060;2022-12-26T16:54:15;5.03;;;4.67;;
6207;SDS011;3137;51.550;7.060;2022-12-26T17:02:23;7.57;;;4.33;;
6207;SDS011;3137;51.550;7.060;2022-12-26T17:04:59;15.63;;;5.40;;
6207;SDS011;3137;51.550;7.060;2022-12-26T17:07:28;9.20;;;5.10;;
6207;SDS011;3137;51.550;7.060;2022-12-26T17:09:57;17.33;;;5.30;;
6207;SDS011;3137;51.550;7.060;2022-12-26T17:12:33;12.23;;;5.77;;
6207;SDS011;3137;51.550;7.060;2022-12-26T17:15:02;4.83;;;4.43;;
6207;SDS011;3137;51.550;7.060;2022-12-26T17:17:39;5.73;;;5.30;;
6207;SDS011;3137;51.550;7.060;2022-12-26T17:22:48;4.90;;;4.30;;
6207;SDS011;3137;51.550;7.060;2022-12-26T17:25:20;4.50;;;4.40;;
6207;SDS011;3137;51.550;7.060;2022-12-26T17:30:54;5.00;;;4.70;;
6207;SDS011;3137;51.550;7.060;2022-12-26T17:33:24;5.40;;;3.97;;
6207;SDS011;3137;51.550;7.060;2022-12-26T17:35:56;4.30;;;4.07;;
6207;SDS011;3137;51.550;7.060;2022-12-26T17:38:52;3.97;;;3.63;;
6207;SDS011;3137;51.550;7.060;2022-12-26T17:41:19;4.23;;;3.90;;
6207;SDS011;3137;51.550;7.060;2022-12-26T17:43:45;5.10;;;3.73;;
6207;SDS011;3137;51.550;7.060;2022-12-26T17:46:13;8.77;;;4.20;;
6207;SDS011;3137;51.550;7.060;2022-12-26T17:48:41;6.20;;;4.00;;
6207;SDS011;3137;51.550;7.060;2022-12-26T17:51:11;4.67;;;4.17;;
6207;SDS011;3137;51.550;7.060;2022-12-26T17:53:40;5.63;;;4.13;;
6207;SDS011;3137;51.550;7.060;2022-12-26T17:56:13;7.70;;;3.77;;
6207;SDS011;3137;51.550;7.060;2022-12-26T17:58:42;8.57;;;3.57;;
6207;SDS011;3137;51.550;7.060;2022-12-26T18:01:08;3.67;;;3.47;;
6207;SDS011;3137;51.550;7.060;2022-12-26T18:03:41;4.33;;;4.13;;
6207;SDS011;3137;51.550;7.060;2022-12-26T18:06:09;4.30;;;4.13;;
6207;SDS011;3137;51.550;7.060;2022-12-26T18:08:39;5.13;;;4.63;;
6207;SDS011;3137;51.550;7.060;2022-12-26T18:11:07;6.93;;;4.43;;
6207;SDS011;3137;51.550;7.060;2022-12-26T18:13:35;7.53;;;4.60;;
6207;SDS011;3137;51.550;7.060;2022-12-26T18:16:02;5.33;;;4.83;;
6207;SDS011;3137;51.550;7.060;2022-12-26T18:18:40;7.83;;;3.97;;
6207;SDS011;3137;51.550;7.060;2022-12-26T18:21:09;4.60;;;4.50;;
6207;SDS011;3137;51.550;7.060;2022-12-26T18:23:37;5.37;;;4.93;;
6207;SDS011;3137;51.550;7.060;2022-12-26T18:26:46;4.47;;;4.17;;
6207;SDS011;3137;51.550;7.060;2022-12-26T18:28:54;5.80;;;4.97;;
6207;SDS011;3137;51.550;7.060;2022-12-26T18:31:20;7.77;;;4.40;;
6207;SDS011;3137;51.550;7.060;2022-12-26T18:33:47;8.63;;;3.50;;
6207;SDS011;3137;51.550;7.060;2022-12-26T18:36:14;9.30;;;3.80;;
6207;SDS011;3137;51.550;7.060;2022-12-26T18:38:42;3.27;;;3.17;;
6207;SDS011;3137;51.550;7.060;2022-12-26T18:41:12;5.17;;;3.27;;
6207;SDS011;3137;51.550;7.060;2022-12-26T18:43:39;3.70;;;3.60;;
6207;SDS011;3137;51.550;7.060;2022-12-26T18:46:11;4.63;;;2.93;;
6207;SDS011;3137;51.550;7.060;2022-12-26T18:48:42;3.70;;;3.50;;
6207;SDS011;3137;51.550;7.060;2022-12-26T18:51:08;4.53;;;4.00;;
6207;SDS011;3137;51.550;7.060;2022-12-26T18:53:36;6.23;;;4.33;;
6207;SDS011;3137;51.550;7.060;2022-12-26T18:56:02;9.13;;;3.93;;
6207;SDS011;3137;51.550;7.060;2022-12-26T18:58:30;8.77;;;3.37;;
6207;SDS011;3137;51.550;7.060;2022-12-26T19:00:58;5.07;;;4.80;;
6207;SDS011;3137;51.550;7.060;2022-12-26T19:03:27;11.63;;;4.77;;
6207;SDS011;3137;51.550;7.060;2022-12-26T19:05:53;5.27;;;4.87;;
6207;SDS011;3137;51.550;7.060;2022-12-26T19:08:19;4.63;;;4.43;;
6207;SDS011;3137;51.550;7.060;2022-12-26T19:10:46;5.30;;;4.80;;
6207;SDS011;3137;51.550;7.060;2022-12-26T19:13:12;8.43;;;4.97;;
6207;SDS011;3137;51.550;7.060;2022-12-26T19:15:43;8.97;;;5.07;;
6207;SDS011;3137;51.550;7.060;2022-12-26T19:18:11;6.30;;;5.17;;
6207;SDS011;3137;51.550;7.060;2022-12-26T19:20:38;5.53;;;4.50;;
6207;SDS011;3137;51.550;7.060;2022-12-26T19:23:09;5.03;;;4.57;;
6207;SDS011;3137;51.550;7.060;2022-12-26T19:25:36;6.50;;;4.87;;
6207;SDS011;3137;51.550;7.060;2022-12-26T19:28:02;4.17;;;3.87;;
6207;SDS011;3137;51.550;7.060;2022-12-26T19:30:29;4.97;;;4.63;;
6207;SDS011;3137;51.550;7.060;2022-12-26T19:33:03;4.43;;;4.23;;
6207;SDS011;3137;51.550;7.060;2022-12-26T19:35:30;5.30;;;4.77;;
6207;SDS011;3137;51.550;7.060;2022-12-26T19:37:56;10.27;;;5.07;;
6207;SDS011;3137;51.550;7.060;2022-12-26T19:40:23;18.50;;;5.20;;
6207;SDS011;3137;51.550;7.060;2022-12-26T19:42:50;9.90;;;5.17;;
6207;SDS011;3137;51.550;7.060;2022-12-26T19:45:17;5.77;;;4.73;;
6207;SDS011;3137;51.550;7.060;2022-12-26T19:47:43;7.80;;;5.07;;
6207;SDS011;3137;51.550;7.060;2022-12-26T19:50:10;9.33;;;4.93;;
6207;SDS011;3137;51.550;7.060;2022-12-26T19:52:37;6.07;;;4.77;;
6207;SDS011;3137;51.550;7.060;2022-12-26T19:55:05;4.90;;;4.50;;
6207;SDS011;3137;51.550;7.060;2022-12-26T19:57:33;4.80;;;4.60;;
6207;SDS011;3137;51.550;7.060;2022-12-26T20:00:00;4.80;;;4.40;;
6207;SDS011;3137;51.550;7.060;2022-12-26T20:02:37;6.17;;;5.40;;
6207;SDS011;3137;51.550;7.060;2022-12-26T20:05:04;6.50;;;4.97;;
6207;SDS011;3137;51.550;7.060;2022-12-26T20:07:31;5.93;;;5.50;;